KORF

Norfolk International Airport

Norfolk, Virginia, USA
METAR KORF 190851Z 33007KT 10SM FEW065 24/21 A2983 RMK AO2 SLP100 T02440211 53006
Observed Flight Rules
Sep-19 @ 08:51 UTC (36 minutes ago) Visual Flight Rules
Wind Visibility Clouds
330° at 7 knots 10 miles
  • Few at 6,500' AGL
Temperatures Readings
Current 24°C / 75°F
Dewpoint 21°C / 70°F
Humidity 83%
Altimeter 29.83" Hg
Pressure 1010 hPa
Elevation 14
METAR KORF 190851Z 33007KT 10SM FEW065 24/21 A2983 RMK AO2 SLP100 T02440211 53006
Observed Flight Rules
Sep-19 @ 08:51 UTC
(36 minutes ago)
VFR
Wind Visibility
330° at 7 knots 10 miles
Clouds
  • Few at 6,500' AGL
Temperature Dewpoint
24°C / 75°F 21°C / 70°F
Humidity Altimeter Pressure
83% 29.83" Hg 1010 hPa